sensor_id;sensor_type;location;lat;lon;timestamp;P1;durP1;ratioP1;P2;durP2;ratioP2
52838;SDS011;39219;53.678;9.856;2024-03-22T00:02:26;29.30;;;13.98;;
52838;SDS011;39219;53.678;9.856;2024-03-22T00:04:52;27.50;;;13.88;;
52838;SDS011;39219;53.678;9.856;2024-03-22T00:07:18;27.40;;;13.38;;
52838;SDS011;39219;53.678;9.856;2024-03-22T00:09:44;25.40;;;13.40;;
52838;SDS011;39219;53.678;9.856;2024-03-22T00:12:10;28.55;;;14.57;;
52838;SDS011;39219;53.678;9.856;2024-03-22T00:14:36;26.67;;;14.02;;
52838;SDS011;39219;53.678;9.856;2024-03-22T00:17:02;30.08;;;14.05;;
52838;SDS011;39219;53.678;9.856;2024-03-22T00:19:30;26.75;;;13.43;;
52838;SDS011;39219;53.678;9.856;2024-03-22T00:21:55;29.05;;;14.23;;
52838;SDS011;39219;53.678;9.856;2024-03-22T00:24:21;30.13;;;13.55;;
52838;SDS011;39219;53.678;9.856;2024-03-22T00:26:47;31.75;;;14.60;;
52838;SDS011;39219;53.678;9.856;2024-03-22T00:29:13;26.38;;;13.38;;
52838;SDS011;39219;53.678;9.856;2024-03-22T00:31:39;33.50;;;14.57;;
52838;SDS011;39219;53.678;9.856;2024-03-22T00:34:05;30.75;;;14.45;;
52838;SDS011;39219;53.678;9.856;2024-03-22T00:36:32;30.00;;;14.18;;
52838;SDS011;39219;53.678;9.856;2024-03-22T00:38:59;28.73;;;14.63;;
52838;SDS011;39219;53.678;9.856;2024-03-22T00:41:24;30.52;;;14.70;;
52838;SDS011;39219;53.678;9.856;2024-03-22T00:43:50;27.83;;;13.73;;
52838;SDS011;39219;53.678;9.856;2024-03-22T00:46:16;29.90;;;14.50;;
52838;SDS011;39219;53.678;9.856;2024-03-22T00:48:42;26.88;;;13.60;;
52838;SDS011;39219;53.678;9.856;2024-03-22T00:51:08;27.52;;;14.05;;
52838;SDS011;39219;53.678;9.856;2024-03-22T00:53:36;33.45;;;14.02;;
52838;SDS011;39219;53.678;9.856;2024-03-22T00:56:01;30.33;;;14.45;;
52838;SDS011;39219;53.678;9.856;2024-03-22T00:58:28;30.10;;;13.93;;
52838;SDS011;39219;53.678;9.856;2024-03-22T01:00:53;31.27;;;14.45;;
52838;SDS011;39219;53.678;9.856;2024-03-22T01:03:20;28.15;;;13.85;;
52838;SDS011;39219;53.678;9.856;2024-03-22T01:05:47;31.02;;;14.27;;
52838;SDS011;39219;53.678;9.856;2024-03-22T01:08:12;29.38;;;14.45;;
52838;SDS011;39219;53.678;9.856;2024-03-22T01:10:40;29.95;;;14.27;;
52838;SDS011;39219;53.678;9.856;2024-03-22T01:13:06;31.00;;;14.88;;
52838;SDS011;39219;53.678;9.856;2024-03-22T01:15:32;32.15;;;15.23;;
52838;SDS011;39219;53.678;9.856;2024-03-22T01:17:58;29.45;;;14.88;;
52838;SDS011;39219;53.678;9.856;2024-03-22T01:20:24;27.80;;;14.48;;
52838;SDS011;39219;53.678;9.856;2024-03-22T01:22:50;30.55;;;14.52;;
52838;SDS011;39219;53.678;9.856;2024-03-22T01:25:16;32.22;;;14.63;;
52838;SDS011;39219;53.678;9.856;2024-03-22T01:27:43;31.75;;;14.55;;
52838;SDS011;39219;53.678;9.856;2024-03-22T01:30:10;30.25;;;15.20;;
52838;SDS011;39219;53.678;9.856;2024-03-22T01:32:36;35.10;;;15.60;;
52838;SDS011;39219;53.678;9.856;2024-03-22T01:35:03;30.73;;;15.77;;
52838;SDS011;39219;53.678;9.856;2024-03-22T01:37:29;30.58;;;15.07;;
52838;SDS011;39219;53.678;9.856;2024-03-22T01:39:55;32.25;;;16.20;;
52838;SDS011;39219;53.678;9.856;2024-03-22T01:42:21;30.83;;;15.70;;
52838;SDS011;39219;53.678;9.856;2024-03-22T01:44:49;32.72;;;15.60;;
52838;SDS011;39219;53.678;9.856;2024-03-22T01:47:15;35.38;;;16.30;;
52838;SDS011;39219;53.678;9.856;2024-03-22T01:49:42;39.03;;;16.88;;
52838;SDS011;39219;53.678;9.856;2024-03-22T01:52:07;31.38;;;15.05;;
52838;SDS011;39219;53.678;9.856;2024-03-22T01:54:34;32.80;;;14.75;;
52838;SDS011;39219;53.678;9.856;2024-03-22T01:57:00;33.15;;;16.38;;
52838;SDS011;39219;53.678;9.856;2024-03-22T01:59:27;36.38;;;16.38;;
52838;SDS011;39219;53.678;9.856;2024-03-22T02:01:55;33.17;;;15.93;;
52838;SDS011;39219;53.678;9.856;2024-03-22T02:04:21;32.20;;;15.73;;
52838;SDS011;39219;53.678;9.856;2024-03-22T02:06:47;33.95;;;15.57;;
52838;SDS011;39219;53.678;9.856;2024-03-22T02:09:14;37.00;;;17.23;;
52838;SDS011;39219;53.678;9.856;2024-03-22T02:11:40;33.22;;;16.20;;
52838;SDS011;39219;53.678;9.856;2024-03-22T02:14:07;36.55;;;16.50;;
52838;SDS011;39219;53.678;9.856;2024-03-22T02:16:32;32.92;;;15.80;;
52838;SDS011;39219;53.678;9.856;2024-03-22T02:19:00;35.85;;;17.23;;
52838;SDS011;39219;53.678;9.856;2024-03-22T02:21:25;34.72;;;16.13;;
52838;SDS011;39219;53.678;9.856;2024-03-22T02:23:53;36.85;;;17.17;;
52838;SDS011;39219;53.678;9.856;2024-03-22T02:26:19;33.28;;;16.92;;
52838;SDS011;39219;53.678;9.856;2024-03-22T02:28:45;35.35;;;17.33;;
52838;SDS011;39219;53.678;9.856;2024-03-22T02:31:11;35.42;;;17.38;;
52838;SDS011;39219;53.678;9.856;2024-03-22T02:33:37;36.88;;;17.25;;
52838;SDS011;39219;53.678;9.856;2024-03-22T02:36:03;37.97;;;17.23;;
52838;SDS011;39219;53.678;9.856;2024-03-22T02:38:30;35.38;;;17.17;;
52838;SDS011;39219;53.678;9.856;2024-03-22T02:40:57;36.75;;;17.77;;
52838;SDS011;39219;53.678;9.856;2024-03-22T02:43:24;36.63;;;18.00;;
52838;SDS011;39219;53.678;9.856;2024-03-22T02:45:50;38.97;;;17.92;;
52838;SDS011;39219;53.678;9.856;2024-03-22T02:48:16;34.58;;;17.38;;
52838;SDS011;39219;53.678;9.856;2024-03-22T02:50:42;35.30;;;17.80;;
52838;SDS011;39219;53.678;9.856;2024-03-22T02:53:08;39.55;;;18.60;;
52838;SDS011;39219;53.678;9.856;2024-03-22T02:55:37;38.45;;;17.88;;
52838;SDS011;39219;53.678;9.856;2024-03-22T02:58:05;37.35;;;18.95;;
52838;SDS011;39219;53.678;9.856;2024-03-22T03:00:31;40.15;;;19.58;;
52838;SDS011;39219;53.678;9.856;2024-03-22T03:02:58;41.83;;;20.33;;
52838;SDS011;39219;53.678;9.856;2024-03-22T03:05:24;40.80;;;20.40;;
52838;SDS011;39219;53.678;9.856;2024-03-22T03:07:50;42.17;;;20.27;;
52838;SDS011;39219;53.678;9.856;2024-03-22T03:10:16;42.28;;;19.80;;
52838;SDS011;39219;53.678;9.856;2024-03-22T03:12:43;46.88;;;20.98;;
52838;SDS011;39219;53.678;9.856;2024-03-22T03:15:10;44.63;;;20.63;;
52838;SDS011;39219;53.678;9.856;2024-03-22T03:17:36;44.60;;;20.88;;
52838;SDS011;39219;53.678;9.856;2024-03-22T03:20:02;43.38;;;20.70;;
52838;SDS011;39219;53.678;9.856;2024-03-22T03:22:32;42.92;;;21.17;;
52838;SDS011;39219;53.678;9.856;2024-03-22T03:24:58;44.47;;;20.83;;
52838;SDS011;39219;53.678;9.856;2024-03-22T03:27:24;48.35;;;22.85;;
52838;SDS011;39219;53.678;9.856;2024-03-22T03:29:50;47.20;;;20.80;;
52838;SDS011;39219;53.678;9.856;2024-03-22T03:32:17;46.13;;;22.33;;
52838;SDS011;39219;53.678;9.856;2024-03-22T03:34:43;47.35;;;22.75;;
52838;SDS011;39219;53.678;9.856;2024-03-22T03:37:10;45.67;;;23.20;;
52838;SDS011;39219;53.678;9.856;2024-03-22T03:39:35;45.45;;;22.27;;
52838;SDS011;39219;53.678;9.856;2024-03-22T03:42:01;45.72;;;22.88;;
52838;SDS011;39219;53.678;9.856;2024-03-22T03:44:27;49.08;;;22.75;;
52838;SDS011;39219;53.678;9.856;2024-03-22T03:46:53;46.78;;;22.80;;
52838;SDS011;39219;53.678;9.856;2024-03-22T03:49:20;48.10;;;23.48;;
52838;SDS011;39219;53.678;9.856;2024-03-22T03:51:47;53.30;;;24.33;;
52838;SDS011;39219;53.678;9.856;2024-03-22T03:54:12;48.45;;;23.00;;
52838;SDS011;39219;53.678;9.856;2024-03-22T03:56:39;52.47;;;24.13;;
52838;SDS011;39219;53.678;9.856;2024-03-22T03:59:04;47.88;;;23.17;;
52838;SDS011;39219;53.678;9.856;2024-03-22T04:01:31;53.05;;;24.60;;
52838;SDS011;39219;53.678;9.856;2024-03-22T04:03:56;52.03;;;24.45;;
52838;SDS011;39219;53.678;9.856;2024-03-22T04:06:24;51.40;;;24.17;;
52838;SDS011;39219;53.678;9.856;2024-03-22T04:08:49;55.63;;;24.77;;
52838;SDS011;39219;53.678;9.856;2024-03-22T04:11:16;53.05;;;25.33;;
52838;SDS011;39219;53.678;9.856;2024-03-22T04:13:41;55.33;;;23.65;;
52838;SDS011;39219;53.678;9.856;2024-03-22T04:16:08;54.47;;;25.65;;
52838;SDS011;39219;53.678;9.856;2024-03-22T04:18:33;54.08;;;24.92;;
52838;SDS011;39219;53.678;9.856;2024-03-22T04:21:00;55.03;;;25.60;;
52838;SDS011;39219;53.678;9.856;2024-03-22T04:23:27;58.17;;;26.45;;
52838;SDS011;39219;53.678;9.856;2024-03-22T04:25:54;55.58;;;25.52;;
52838;SDS011;39219;53.678;9.856;2024-03-22T04:28:20;57.65;;;25.98;;
52838;SDS011;39219;53.678;9.856;2024-03-22T04:30:54;54.67;;;25.58;;
52838;SDS011;39219;53.678;9.856;2024-03-22T04:33:23;59.08;;;27.25;;
52838;SDS011;39219;53.678;9.856;2024-03-22T04:35:50;55.45;;;26.38;;
52838;SDS011;39219;53.678;9.856;2024-03-22T04:38:16;58.90;;;27.15;;
52838;SDS011;39219;53.678;9.856;2024-03-22T04:40:44;60.63;;;27.13;;
52838;SDS011;39219;53.678;9.856;2024-03-22T04:43:10;58.33;;;27.52;;
52838;SDS011;39219;53.678;9.856;2024-03-22T04:45:37;58.88;;;26.77;;
52838;SDS011;39219;53.678;9.856;2024-03-22T04:48:03;63.95;;;27.35;;
52838;SDS011;39219;53.678;9.856;2024-03-22T04:50:30;59.90;;;27.38;;
52838;SDS011;39219;53.678;9.856;2024-03-22T04:52:56;63.17;;;28.15;;
52838;SDS011;39219;53.678;9.856;2024-03-22T04:55:23;57.90;;;26.80;;
52838;SDS011;39219;53.678;9.856;2024-03-22T04:57:51;58.80;;;27.92;;
52838;SDS011;39219;53.678;9.856;2024-03-22T05:00:17;60.33;;;28.00;;
52838;SDS011;39219;53.678;9.856;2024-03-22T05:02:43;65.75;;;28.20;;
52838;SDS011;39219;53.678;9.856;2024-03-22T05:05:10;66.63;;;29.02;;
52838;SDS011;39219;53.678;9.856;2024-03-22T05:07:36;64.57;;;29.85;;
52838;SDS011;39219;53.678;9.856;2024-03-22T05:10:03;65.93;;;28.77;;
52838;SDS011;39219;53.678;9.856;2024-03-22T05:12:29;63.22;;;27.88;;
52838;SDS011;39219;53.678;9.856;2024-03-22T05:14:56;63.13;;;28.45;;
52838;SDS011;39219;53.678;9.856;2024-03-22T05:17:22;64.30;;;28.40;;
52838;SDS011;39219;53.678;9.856;2024-03-22T05:19:48;67.53;;;28.70;;
52838;SDS011;39219;53.678;9.856;2024-03-22T05:22:14;67.00;;;30.10;;
52838;SDS011;39219;53.678;9.856;2024-03-22T05:24:40;66.28;;;29.67;;
52838;SDS011;39219;53.678;9.856;2024-03-22T05:27:06;62.63;;;29.90;;
52838;SDS011;39219;53.678;9.856;2024-03-22T05:29:32;65.90;;;29.70;;
52838;SDS011;39219;53.678;9.856;2024-03-22T05:31:59;65.47;;;29.23;;
52838;SDS011;39219;53.678;9.856;2024-03-22T05:34:25;65.65;;;30.67;;
52838;SDS011;39219;53.678;9.856;2024-03-22T05:36:51;67.32;;;30.45;;
52838;SDS011;39219;53.678;9.856;2024-03-22T05:39:17;71.28;;;30.25;;
52838;SDS011;39219;53.678;9.856;2024-03-22T05:41:43;67.60;;;30.13;;
52838;SDS011;39219;53.678;9.856;2024-03-22T05:44:10;70.10;;;30.67;;
52838;SDS011;39219;53.678;9.856;2024-03-22T05:46:36;67.93;;;30.88;;
52838;SDS011;39219;53.678;9.856;2024-03-22T05:49:04;67.60;;;31.35;;
52838;SDS011;39219;53.678;9.856;2024-03-22T05:51:29;74.13;;;32.35;;
52838;SDS011;39219;53.678;9.856;2024-03-22T05:53:56;68.18;;;30.45;;
52838;SDS011;39219;53.678;9.856;2024-03-22T05:56:21;73.05;;;32.95;;
52838;SDS011;39219;53.678;9.856;2024-03-22T05:58:48;72.85;;;31.38;;
52838;SDS011;39219;53.678;9.856;2024-03-22T06:01:14;70.07;;;31.90;;
52838;SDS011;39219;53.678;9.856;2024-03-22T06:03:40;71.53;;;31.95;;
52838;SDS011;39219;53.678;9.856;2024-03-22T06:06:07;73.13;;;32.47;;
52838;SDS011;39219;53.678;9.856;2024-03-22T06:08:34;73.95;;;31.42;;
52838;SDS011;39219;53.678;9.856;2024-03-22T06:11:04;76.82;;;33.55;;
52838;SDS011;39219;53.678;9.856;2024-03-22T06:13:29;73.93;;;31.92;;
52838;SDS011;39219;53.678;9.856;2024-03-22T06:15:57;69.57;;;31.85;;
52838;SDS011;39219;53.678;9.856;2024-03-22T06:18:22;74.03;;;32.42;;
52838;SDS011;39219;53.678;9.856;2024-03-22T06:20:49;80.97;;;33.95;;
52838;SDS011;39219;53.678;9.856;2024-03-22T06:23:16;72.07;;;31.80;;
52838;SDS011;39219;53.678;9.856;2024-03-22T06:25:50;73.43;;;32.50;;
52838;SDS011;39219;53.678;9.856;2024-03-22T06:28:16;70.88;;;32.17;;
52838;SDS011;39219;53.678;9.856;2024-03-22T06:30:42;75.10;;;32.60;;
52838;SDS011;39219;53.678;9.856;2024-03-22T06:33:08;69.45;;;31.33;;
52838;SDS011;39219;53.678;9.856;2024-03-22T06:35:34;74.25;;;32.83;;
52838;SDS011;39219;53.678;9.856;2024-03-22T06:38:00;74.55;;;32.05;;
52838;SDS011;39219;53.678;9.856;2024-03-22T06:40:29;73.10;;;32.80;;
52838;SDS011;39219;53.678;9.856;2024-03-22T06:42:55;76.40;;;33.38;;
52838;SDS011;39219;53.678;9.856;2024-03-22T06:45:21;77.55;;;33.40;;
52838;SDS011;39219;53.678;9.856;2024-03-22T06:47:47;72.47;;;32.33;;
52838;SDS011;39219;53.678;9.856;2024-03-22T06:50:13;74.13;;;32.08;;
52838;SDS011;39219;53.678;9.856;2024-03-22T06:52:39;73.25;;;33.17;;
52838;SDS011;39219;53.678;9.856;2024-03-22T06:55:05;76.10;;;35.15;;
52838;SDS011;39219;53.678;9.856;2024-03-22T06:57:33;79.82;;;34.22;;
52838;SDS011;39219;53.678;9.856;2024-03-22T06:59:59;74.50;;;32.90;;
52838;SDS011;39219;53.678;9.856;2024-03-22T07:02:25;79.07;;;34.80;;
52838;SDS011;39219;53.678;9.856;2024-03-22T07:04:51;78.43;;;34.72;;
52838;SDS011;39219;53.678;9.856;2024-03-22T07:07:17;81.15;;;33.85;;
52838;SDS011;39219;53.678;9.856;2024-03-22T07:09:43;74.00;;;31.85;;
52838;SDS011;39219;53.678;9.856;2024-03-22T07:12:09;71.72;;;32.70;;
52838;SDS011;39219;53.678;9.856;2024-03-22T07:14:37;75.10;;;33.15;;
52838;SDS011;39219;53.678;9.856;2024-03-22T07:17:02;80.32;;;34.65;;
52838;SDS011;39219;53.678;9.856;2024-03-22T07:19:30;75.35;;;33.38;;
52838;SDS011;39219;53.678;9.856;2024-03-22T07:21:56;76.78;;;33.45;;
52838;SDS011;39219;53.678;9.856;2024-03-22T07:24:24;73.80;;;32.72;;
52838;SDS011;39219;53.678;9.856;2024-03-22T07:26:50;74.60;;;33.25;;
52838;SDS011;39219;53.678;9.856;2024-03-22T07:29:16;73.13;;;32.70;;
52838;SDS011;39219;53.678;9.856;2024-03-22T07:31:43;78.28;;;33.58;;
52838;SDS011;39219;53.678;9.856;2024-03-22T07:34:10;76.28;;;33.90;;
52838;SDS011;39219;53.678;9.856;2024-03-22T07:36:37;77.65;;;33.10;;
52838;SDS011;39219;53.678;9.856;2024-03-22T07:39:03;74.55;;;33.67;;
52838;SDS011;39219;53.678;9.856;2024-03-22T07:41:31;77.10;;;34.10;;
52838;SDS011;39219;53.678;9.856;2024-03-22T07:43:57;69.75;;;32.42;;
52838;SDS011;39219;53.678;9.856;2024-03-22T07:46:23;76.63;;;34.45;;
52838;SDS011;39219;53.678;9.856;2024-03-22T07:48:51;74.82;;;32.92;;
52838;SDS011;39219;53.678;9.856;2024-03-22T07:51:16;75.93;;;33.10;;
52838;SDS011;39219;53.678;9.856;2024-03-22T07:53:43;75.78;;;32.60;;
52838;SDS011;39219;53.678;9.856;2024-03-22T07:56:08;75.95;;;33.60;;
52838;SDS011;39219;53.678;9.856;2024-03-22T07:58:35;79.13;;;33.95;;
52838;SDS011;39219;53.678;9.856;2024-03-22T08:01:00;74.32;;;32.95;;
52838;SDS011;39219;53.678;9.856;2024-03-22T08:03:27;77.90;;;34.55;;
52838;SDS011;39219;53.678;9.856;2024-03-22T08:05:54;73.82;;;32.88;;
52838;SDS011;39219;53.678;9.856;2024-03-22T08:08:20;78.75;;;34.90;;
52838;SDS011;39219;53.678;9.856;2024-03-22T08:10:46;80.15;;;33.33;;
52838;SDS011;39219;53.678;9.856;2024-03-22T08:13:13;77.43;;;33.97;;
52838;SDS011;39219;53.678;9.856;2024-03-22T08:15:38;75.30;;;33.67;;
52838;SDS011;39219;53.678;9.856;2024-03-22T08:18:05;78.38;;;34.72;;
52838;SDS011;39219;53.678;9.856;2024-03-22T08:20:31;81.63;;;34.78;;
52838;SDS011;39219;53.678;9.856;2024-03-22T08:23:00;80.97;;;35.55;;
52838;SDS011;39219;53.678;9.856;2024-03-22T08:25:25;85.85;;;36.45;;
52838;SDS011;39219;53.678;9.856;2024-03-22T08:27:52;84.70;;;35.88;;
52838;SDS011;39219;53.678;9.856;2024-03-22T08:30:20;81.65;;;36.50;;
52838;SDS011;39219;53.678;9.856;2024-03-22T08:32:46;87.32;;;36.92;;
52838;SDS011;39219;53.678;9.856;2024-03-22T08:35:13;83.45;;;35.25;;
52838;SDS011;39219;53.678;9.856;2024-03-22T08:37:39;83.53;;;36.42;;
52838;SDS011;39219;53.678;9.856;2024-03-22T08:40:07;90.60;;;37.15;;
52838;SDS011;39219;53.678;9.856;2024-03-22T08:42:35;82.50;;;36.92;;
52838;SDS011;39219;53.678;9.856;2024-03-22T08:45:01;84.22;;;35.85;;
52838;SDS011;39219;53.678;9.856;2024-03-22T08:47:29;82.90;;;36.70;;
52838;SDS011;39219;53.678;9.856;2024-03-22T08:49:54;81.38;;;36.40;;
52838;SDS011;39219;53.678;9.856;2024-03-22T08:52:22;80.80;;;35.22;;
52838;SDS011;39219;53.678;9.856;2024-03-22T08:54:49;91.82;;;37.90;;
52838;SDS011;39219;53.678;9.856;2024-03-22T08:57:16;83.03;;;35.67;;
52838;SDS011;39219;53.678;9.856;2024-03-22T08:59:42;79.85;;;34.30;;
52838;SDS011;39219;53.678;9.856;2024-03-22T09:02:08;84.00;;;36.50;;
52838;SDS011;39219;53.678;9.856;2024-03-22T09:04:34;80.93;;;35.55;;
52838;SDS011;39219;53.678;9.856;2024-03-22T09:07:00;86.93;;;36.42;;
52838;SDS011;39219;53.678;9.856;2024-03-22T09:09:26;89.03;;;36.58;;
52838;SDS011;39219;53.678;9.856;2024-03-22T09:11:52;83.10;;;35.83;;
52838;SDS011;39219;53.678;9.856;2024-03-22T09:14:19;90.45;;;36.45;;
52838;SDS011;39219;53.678;9.856;2024-03-22T09:16:45;84.93;;;35.97;;
52838;SDS011;39219;53.678;9.856;2024-03-22T09:19:11;85.57;;;35.80;;
52838;SDS011;39219;53.678;9.856;2024-03-22T09:21:37;81.78;;;35.88;;
52838;SDS011;39219;53.678;9.856;2024-03-22T09:24:03;90.28;;;37.25;;
52838;SDS011;39219;53.678;9.856;2024-03-22T09:26:32;90.13;;;36.38;;
52838;SDS011;39219;53.678;9.856;2024-03-22T09:28:58;92.03;;;37.88;;
52838;SDS011;39219;53.678;9.856;2024-03-22T09:31:25;89.90;;;36.78;;
52838;SDS011;39219;53.678;9.856;2024-03-22T09:33:51;88.07;;;36.35;;
52838;SDS011;39219;53.678;9.856;2024-03-22T09:36:17;84.47;;;36.55;;
52838;SDS011;39219;53.678;9.856;2024-03-22T09:38:43;90.50;;;37.88;;
52838;SDS011;39219;53.678;9.856;2024-03-22T09:41:09;88.85;;;35.60;;
52838;SDS011;39219;53.678;9.856;2024-03-22T09:43:35;81.05;;;34.58;;
52838;SDS011;39219;53.678;9.856;2024-03-22T09:46:04;87.38;;;35.78;;
52838;SDS011;39219;53.678;9.856;2024-03-22T09:48:31;76.95;;;33.45;;
52838;SDS011;39219;53.678;9.856;2024-03-22T09:50:59;81.85;;;34.60;;
52838;SDS011;39219;53.678;9.856;2024-03-22T09:53:26;75.03;;;32.47;;
52838;SDS011;39219;53.678;9.856;2024-03-22T09:55:56;76.05;;;32.85;;
52838;SDS011;39219;53.678;9.856;2024-03-22T09:58:24;75.57;;;32.20;;
52838;SDS011;39219;53.678;9.856;2024-03-22T10:00:50;76.70;;;31.70;;
52838;SDS011;39219;53.678;9.856;2024-03-22T10:03:16;75.57;;;32.30;;
52838;SDS011;39219;53.678;9.856;2024-03-22T10:05:44;68.47;;;30.48;;
52838;SDS011;39219;53.678;9.856;2024-03-22T10:08:09;65.93;;;29.70;;
52838;SDS011;39219;53.678;9.856;2024-03-22T10:10:37;67.82;;;29.42;;
52838;SDS011;39219;53.678;9.856;2024-03-22T10:13:03;72.65;;;30.45;;
52838;SDS011;39219;53.678;9.856;2024-03-22T10:15:30;64.10;;;29.25;;
52838;SDS011;39219;53.678;9.856;2024-03-22T10:17:56;62.45;;;28.35;;
52838;SDS011;39219;53.678;9.856;2024-03-22T10:20:23;58.15;;;26.60;;
52838;SDS011;39219;53.678;9.856;2024-03-22T10:22:54;55.65;;;24.55;;
52838;SDS011;39219;53.678;9.856;2024-03-22T10:25:23;51.22;;;24.30;;
52838;SDS011;39219;53.678;9.856;2024-03-22T10:27:49;49.47;;;22.85;;
52838;SDS011;39219;53.678;9.856;2024-03-22T10:30:16;50.95;;;24.48;;
52838;SDS011;39219;53.678;9.856;2024-03-22T10:32:42;48.53;;;23.00;;
52838;SDS011;39219;53.678;9.856;2024-03-22T10:35:11;46.85;;;21.88;;
52838;SDS011;39219;53.678;9.856;2024-03-22T10:37:38;44.65;;;20.70;;
52838;SDS011;39219;53.678;9.856;2024-03-22T10:40:07;41.85;;;20.75;;
52838;SDS011;39219;53.678;9.856;2024-03-22T10:42:34;44.08;;;22.50;;
52838;SDS011;39219;53.678;9.856;2024-03-22T10:45:01;40.47;;;20.02;;
52838;SDS011;39219;53.678;9.856;2024-03-22T10:47:28;41.00;;;19.77;;
52838;SDS011;39219;53.678;9.856;2024-03-22T10:49:56;42.38;;;19.40;;
52838;SDS011;39219;53.678;9.856;2024-03-22T10:52:29;38.00;;;18.70;;
52838;SDS011;39219;53.678;9.856;2024-03-22T10:54:57;38.92;;;19.15;;
52838;SDS011;39219;53.678;9.856;2024-03-22T10:57:24;38.30;;;18.58;;
52838;SDS011;39219;53.678;9.856;2024-03-22T10:59:53;33.67;;;16.63;;
52838;SDS011;39219;53.678;9.856;2024-03-22T11:02:19;32.75;;;15.52;;
52838;SDS011;39219;53.678;9.856;2024-03-22T11:04:58;32.25;;;16.45;;
52838;SDS011;39219;53.678;9.856;2024-03-22T11:07:28;30.70;;;15.18;;
52838;SDS011;39219;53.678;9.856;2024-03-22T11:09:55;25.33;;;13.20;;
52838;SDS011;39219;53.678;9.856;2024-03-22T11:12:25;26.80;;;13.55;;
52838;SDS011;39219;53.678;9.856;2024-03-22T11:14:52;24.63;;;12.40;;
52838;SDS011;39219;53.678;9.856;2024-03-22T11:17:18;26.08;;;12.65;;
52838;SDS011;39219;53.678;9.856;2024-03-22T11:19:46;22.35;;;11.57;;
52838;SDS011;39219;53.678;9.856;2024-03-22T11:22:11;22.42;;;11.65;;
52838;SDS011;39219;53.678;9.856;2024-03-22T11:24:39;21.00;;;10.88;;
52838;SDS011;39219;53.678;9.856;2024-03-22T11:27:05;21.45;;;10.52;;
52838;SDS011;39219;53.678;9.856;2024-03-22T11:29:32;19.50;;;10.13;;
52838;SDS011;39219;53.678;9.856;2024-03-22T11:31:59;20.60;;;10.60;;
52838;SDS011;39219;53.678;9.856;2024-03-22T11:34:25;18.85;;;9.85;;
52838;SDS011;39219;53.678;9.856;2024-03-22T11:36:51;17.58;;;9.57;;
52838;SDS011;39219;53.678;9.856;2024-03-22T11:39:19;16.33;;;9.07;;
52838;SDS011;39219;53.678;9.856;2024-03-22T11:41:46;15.85;;;8.98;;
52838;SDS011;39219;53.678;9.856;2024-03-22T11:44:15;17.25;;;9.18;;
52838;SDS011;39219;53.678;9.856;2024-03-22T11:46:44;15.85;;;8.32;;
52838;SDS011;39219;53.678;9.856;2024-03-22T11:49:11;16.55;;;8.68;;
52838;SDS011;39219;53.678;9.856;2024-03-22T11:51:38;16.50;;;8.88;;
52838;SDS011;39219;53.678;9.856;2024-03-22T11:54:05;16.95;;;8.88;;
52838;SDS011;39219;53.678;9.856;2024-03-22T11:56:34;18.23;;;9.27;;
52838;SDS011;39219;53.678;9.856;2024-03-22T11:59:00;14.60;;;8.00;;
52838;SDS011;39219;53.678;9.856;2024-03-22T12:01:28;14.52;;;7.70;;
52838;SDS011;39219;53.678;9.856;2024-03-22T12:03:55;15.18;;;8.55;;
52838;SDS011;39219;53.678;9.856;2024-03-22T12:06:23;14.73;;;8.57;;
52838;SDS011;39219;53.678;9.856;2024-03-22T12:08:48;15.65;;;8.57;;
52838;SDS011;39219;53.678;9.856;2024-03-22T12:11:15;15.90;;;8.52;;
52838;SDS011;39219;53.678;9.856;2024-03-22T12:13:41;11.10;;;6.43;;
52838;SDS011;39219;53.678;9.856;2024-03-22T12:16:08;9.73;;;5.53;;
52838;SDS011;39219;53.678;9.856;2024-03-22T12:18:33;9.32;;;5.28;;
52838;SDS011;39219;53.678;9.856;2024-03-22T12:21:01;9.27;;;4.90;;
52838;SDS011;39219;53.678;9.856;2024-03-22T12:23:27;8.50;;;4.63;;
52838;SDS011;39219;53.678;9.856;2024-03-22T12:25:54;6.72;;;3.67;;
52838;SDS011;39219;53.678;9.856;2024-03-22T12:28:20;6.15;;;3.70;;
52838;SDS011;39219;53.678;9.856;2024-03-22T12:30:47;5.90;;;3.30;;
52838;SDS011;39219;53.678;9.856;2024-03-22T12:33:13;5.93;;;3.22;;
52838;SDS011;39219;53.678;9.856;2024-03-22T12:35:40;4.13;;;2.90;;
52838;SDS011;39219;53.678;9.856;2024-03-22T12:38:07;4.50;;;2.95;;
52838;SDS011;39219;53.678;9.856;2024-03-22T12:40:35;5.82;;;3.05;;
52838;SDS011;39219;53.678;9.856;2024-03-22T12:43:01;5.22;;;3.10;;
52838;SDS011;39219;53.678;9.856;2024-03-22T12:45:28;3.63;;;2.58;;
52838;SDS011;39219;53.678;9.856;2024-03-22T12:47:53;3.72;;;2.50;;
52838;SDS011;39219;53.678;9.856;2024-03-22T12:50:21;4.82;;;2.70;;
52838;SDS011;39219;53.678;9.856;2024-03-22T12:52:46;3.13;;;2.20;;
52838;SDS011;39219;53.678;9.856;2024-03-22T12:55:14;3.80;;;2.40;;
52838;SDS011;39219;53.678;9.856;2024-03-22T12:57:39;3.50;;;2.40;;
52838;SDS011;39219;53.678;9.856;2024-03-22T13:00:06;4.18;;;2.60;;
52838;SDS011;39219;53.678;9.856;2024-03-22T13:02:38;3.22;;;1.92;;
52838;SDS011;39219;53.678;9.856;2024-03-22T13:05:05;2.83;;;2.20;;
52838;SDS011;39219;53.678;9.856;2024-03-22T13:07:31;2.28;;;1.85;;
52838;SDS011;39219;53.678;9.856;2024-03-22T13:09:58;2.83;;;2.10;;
52838;SDS011;39219;53.678;9.856;2024-03-22T13:12:26;3.13;;;2.10;;
52838;SDS011;39219;53.678;9.856;2024-03-22T13:14:53;3.25;;;2.10;;
52838;SDS011;39219;53.678;9.856;2024-03-22T13:17:19;2.22;;;1.98;;
52838;SDS011;39219;53.678;9.856;2024-03-22T13:19:45;2.90;;;2.00;;
52838;SDS011;39219;53.678;9.856;2024-03-22T13:22:11;2.78;;;1.73;;
52838;SDS011;39219;53.678;9.856;2024-03-22T13:24:39;4.50;;;2.22;;
52838;SDS011;39219;53.678;9.856;2024-03-22T13:27:06;2.53;;;1.80;;
52838;SDS011;39219;53.678;9.856;2024-03-22T13:29:34;2.90;;;2.03;;
52838;SDS011;39219;53.678;9.856;2024-03-22T13:32:00;3.05;;;1.80;;
52838;SDS011;39219;53.678;9.856;2024-03-22T13:34:26;1.95;;;1.60;;
52838;SDS011;39219;53.678;9.856;2024-03-22T13:36:53;2.58;;;1.55;;
52838;SDS011;39219;53.678;9.856;2024-03-22T13:39:19;2.10;;;1.73;;
52838;SDS011;39219;53.678;9.856;2024-03-22T13:41:45;2.83;;;1.75;;
52838;SDS011;39219;53.678;9.856;2024-03-22T13:44:10;2.08;;;1.88;;
52838;SDS011;39219;53.678;9.856;2024-03-22T13:46:38;3.28;;;2.00;;
52838;SDS011;39219;53.678;9.856;2024-03-22T13:49:12;2.03;;;1.80;;
52838;SDS011;39219;53.678;9.856;2024-03-22T13:51:40;2.60;;;2.00;;
52838;SDS011;39219;53.678;9.856;2024-03-22T13:54:06;3.15;;;1.90;;
52838;SDS011;39219;53.678;9.856;2024-03-22T13:56:32;3.47;;;1.83;;
52838;SDS011;39219;53.678;9.856;2024-03-22T13:58:58;3.05;;;2.05;;
52838;SDS011;39219;53.678;9.856;2024-03-22T14:01:24;1.67;;;1.35;;
52838;SDS011;39219;53.678;9.856;2024-03-22T14:03:51;2.42;;;1.70;;
52838;SDS011;39219;53.678;9.856;2024-03-22T14:06:17;2.28;;;1.50;;
52838;SDS011;39219;53.678;9.856;2024-03-22T14:08:43;2.28;;;1.73;;
52838;SDS011;39219;53.678;9.856;2024-03-22T14:11:09;5.35;;;2.35;;
52838;SDS011;39219;53.678;9.856;2024-03-22T14:13:35;6.15;;;2.22;;
52838;SDS011;39219;53.678;9.856;2024-03-22T14:16:02;7.43;;;2.38;;
52838;SDS011;39219;53.678;9.856;2024-03-22T14:18:27;7.00;;;2.58;;
52838;SDS011;39219;53.678;9.856;2024-03-22T14:20:55;9.82;;;3.03;;
52838;SDS011;39219;53.678;9.856;2024-03-22T14:23:21;10.70;;;2.92;;